Time;durP1;ratioP1;P1;durP2;ratioP2;P2;SDS_P1;SDS_P2;PMS_P1;PMS_P2;Temp;Humidity;BMP_temperature;BMP_pressure;BME280_temperature;BME280_humidity;BME280_pressure;Samples;Min_cycle;Max_cycle;Signal;HPM_P1;HPM_P2
2021/05/12 00:02:14;;;;;;;28.92;26.42;;;;;;;;;;5011071;28;20170;-45
2021/05/12 00:04:39;;;;;;;29.35;26.80;;;;;;;;;;5010507;28;20187;-44
2021/05/12 00:07:04;;;;;;;30.30;27.70;;;;;;;;;;5011108;28;20643;-45
2021/05/12 00:09:29;;;;;;;29.50;26.85;;;;;;;;;;5007805;28;20220;-45
2021/05/12 00:11:55;;;;;;;27.77;25.38;;;;;;;;;;5011329;28;20216;-44
2021/05/12 00:14:20;;;;;;;25.60;23.30;;;;;;;;;;4995840;28;20463;-45
2021/05/12 00:16:45;;;;;;;28.48;25.98;;;;;;;;;;5010779;28;20219;-45
2021/05/12 00:19:10;;;;;;;26.70;24.40;;;;;;;;;;5004524;28;20644;-45
2021/05/12 00:21:42;;;;;;;25.10;23.00;;;;;;;;;;5011097;28;20171;-46
2021/05/12 00:24:07;;;;;;;27.83;25.50;;;;;;;;;;5012660;28;20171;-45
2021/05/12 00:26:41;;;;;;;25.90;23.60;;;;;;;;;;5006317;28;21233;-44
2021/05/12 00:29:13;;;;;;;27.93;25.53;;;;;;;;;;5008486;28;20664;-45
2021/05/12 00:31:38;;;;;;;22.27;20.33;;;;;;;;;;5009272;28;20664;-45
2021/05/12 00:34:04;;;;;;;19.30;17.70;;;;;;;;;;5007122;28;20629;-45
2021/05/12 00:36:29;;;;;;;19.80;18.20;;;;;;;;;;5011047;28;20174;-46
2021/05/12 00:38:56;;;;;;;18.87;17.37;;;;;;;;;;5007145;28;20723;-45
2021/05/12 00:41:22;;;;;;;16.57;15.27;;;;;;;;;;5009525;28;20539;-45
2021/05/12 00:43:47;;;;;;;17.37;15.97;;;;;;;;;;5006982;28;20607;-45
2021/05/12 00:46:12;;;;;;;16.25;14.98;;;;;;;;;;5010826;28;20274;-45
2021/05/12 00:48:39;;;;;;;14.93;13.73;;;;;;;;;;5009844;28;20186;-46
2021/05/12 00:51:04;;;;;;;14.97;13.87;;;;;;;;;;5006165;28;20264;-45
2021/05/12 00:53:29;;;;;;;15.60;14.40;;;;;;;;;;5009752;28;21092;-45
2021/05/12 00:55:54;;;;;;;14.80;13.67;;;;;;;;;;5002279;28;20184;-46
2021/05/12 00:58:19;;;;;;;14.80;13.70;;;;;;;;;;5010080;28;20172;-45
2021/05/12 01:00:44;;;;;;;15.45;14.15;;;;;;;;;;5007208;28;20190;-45
2021/05/12 01:03:10;;;;;;;15.23;13.82;;;;;;;;;;5008740;28;20333;-46
2021/05/12 01:05:35;;;;;;;17.70;16.20;;;;;;;;;;5008883;28;20179;-45
2021/05/12 01:08:00;;;;;;;15.30;14.05;;;;;;;;;;5011255;28;20184;-46
2021/05/12 01:10:26;;;;;;;18.13;16.43;;;;;;;;;;4992718;28;20225;-45
2021/05/12 01:12:51;;;;;;;18.60;17.10;;;;;;;;;;4996405;28;20295;-45
2021/05/12 01:15:16;;;;;;;18.73;17.13;;;;;;;;;;5000023;28;20184;-46
2021/05/12 01:17:42;;;;;;;19.03;17.40;;;;;;;;;;5001664;28;20179;-46
2021/05/12 01:20:08;;;;;;;20.13;18.27;;;;;;;;;;5018680;28;20231;-45
2021/05/12 01:22:33;;;;;;;21.20;19.10;;;;;;;;;;4994588;28;20724;-44
2021/05/12 01:24:59;;;;;;;20.73;18.95;;;;;;;;;;4993451;28;20706;-44
2021/05/12 01:27:24;;;;;;;21.67;19.77;;;;;;;;;;5007899;28;20302;-44
2021/05/12 01:29:49;;;;;;;22.37;20.27;;;;;;;;;;5012956;28;20184;-44
2021/05/12 01:32:15;;;;;;;25.23;22.83;;;;;;;;;;4991134;28;20231;-44
2021/05/12 01:34:41;;;;;;;23.07;21.00;;;;;;;;;;5008154;28;20166;-44
2021/05/12 01:37:06;;;;;;;23.17;21.02;;;;;;;;;;4993976;28;20688;-44
2021/05/12 01:39:31;;;;;;;23.97;21.77;;;;;;;;;;5006457;28;20548;-44
2021/05/12 01:41:56;;;;;;;26.30;23.60;;;;;;;;;;4996811;28;20196;-45
2021/05/12 01:44:22;;;;;;;25.77;23.27;;;;;;;;;;5007558;28;20184;-45
2021/05/12 01:46:48;;;;;;;25.63;23.23;;;;;;;;;;5008984;28;20189;-44
2021/05/12 01:49:13;;;;;;;25.30;22.90;;;;;;;;;;5003555;28;20698;-44
2021/05/12 01:51:39;;;;;;;26.03;23.57;;;;;;;;;;4992075;28;20211;-44
2021/05/12 01:54:07;;;;;;;28.43;25.63;;;;;;;;;;5003974;28;20202;-45
2021/05/12 01:56:33;;;;;;;27.27;24.53;;;;;;;;;;5005716;28;20440;-45
2021/05/12 01:58:58;;;;;;;28.60;25.80;;;;;;;;;;5011441;28;20633;-46
2021/05/12 02:01:23;;;;;;;26.70;24.20;;;;;;;;;;4993321;28;20640;-45
2021/05/12 02:03:49;;;;;;;29.13;26.42;;;;;;;;;;5003281;28;20193;-46
2021/05/12 02:06:14;;;;;;;28.50;25.70;;;;;;;;;;5004483;28;20213;-47
2021/05/12 02:08:39;;;;;;;29.00;26.20;;;;;;;;;;5002328;28;20181;-46
2021/05/12 02:11:06;;;;;;;26.93;24.47;;;;;;;;;;5002140;28;20235;-46
2021/05/12 02:13:32;;;;;;;29.27;26.37;;;;;;;;;;4999798;28;20572;-45
2021/05/12 02:15:58;;;;;;;27.73;24.80;;;;;;;;;;5002123;28;20609;-45
2021/05/12 02:18:23;;;;;;;27.57;24.77;;;;;;;;;;5005176;28;20616;-45
2021/05/12 02:20:48;;;;;;;26.67;23.95;;;;;;;;;;5004403;28;20608;-45
2021/05/12 02:23:15;;;;;;;28.00;25.40;;;;;;;;;;4995126;28;20174;-45
2021/05/12 02:25:41;;;;;;;28.10;25.50;;;;;;;;;;4998085;28;20549;-45
2021/05/12 02:28:06;;;;;;;27.60;24.97;;;;;;;;;;4997101;28;20596;-46
2021/05/12 02:30:32;;;;;;;27.17;24.60;;;;;;;;;;4997937;28;20179;-45
2021/05/12 02:32:57;;;;;;;29.30;26.20;;;;;;;;;;4995619;28;20203;-45
2021/05/12 02:35:23;;;;;;;28.27;25.27;;;;;;;;;;5000494;28;20179;-45
2021/05/12 02:37:48;;;;;;;27.30;24.50;;;;;;;;;;4998109;28;20591;-45
2021/05/12 02:40:14;;;;;;;27.73;25.00;;;;;;;;;;4996009;28;20999;-45
2021/05/12 02:42:40;;;;;;;27.67;25.10;;;;;;;;;;5004791;28;20178;-45
2021/05/12 02:45:05;;;;;;;28.53;25.73;;;;;;;;;;5004795;28;20686;-44
2021/05/12 02:47:30;;;;;;;26.63;23.80;;;;;;;;;;5004345;28;20449;-44
2021/05/12 02:49:55;;;;;;;31.02;27.88;;;;;;;;;;5007580;28;20195;-44
2021/05/12 02:52:21;;;;;;;30.30;27.08;;;;;;;;;;5008330;28;20605;-44
2021/05/12 02:54:46;;;;;;;30.30;27.17;;;;;;;;;;5006902;28;21543;-45
2021/05/12 02:57:11;;;;;;;30.97;27.93;;;;;;;;;;4992087;28;20525;-46
2021/05/12 02:59:37;;;;;;;31.50;28.40;;;;;;;;;;5006384;28;20194;-44
2021/05/12 03:02:02;;;;;;;32.20;29.13;;;;;;;;;;5006055;28;20528;-45
2021/05/12 03:04:27;;;;;;;31.93;28.93;;;;;;;;;;5007983;28;20275;-45
2021/05/12 03:06:52;;;;;;;32.60;29.33;;;;;;;;;;5006164;28;20177;-45
2021/05/12 03:09:17;;;;;;;29.93;27.07;;;;;;;;;;4998199;28;20620;-45
2021/05/12 03:11:43;;;;;;;27.95;25.35;;;;;;;;;;5007124;28;20286;-45
2021/05/12 03:14:08;;;;;;;30.10;27.20;;;;;;;;;;4997456;28;20170;-46
2021/05/12 03:16:34;;;;;;;30.50;27.60;;;;;;;;;;5004256;28;20647;-45
2021/05/12 03:18:59;;;;;;;29.33;26.60;;;;;;;;;;5015536;28;20296;-45
2021/05/12 03:21:25;;;;;;;29.27;26.40;;;;;;;;;;5009751;28;20600;-45
2021/05/12 03:23:50;;;;;;;28.03;25.20;;;;;;;;;;5009074;28;20205;-45
2021/05/12 03:26:16;;;;;;;27.77;25.17;;;;;;;;;;5008941;28;20194;-45
2021/05/12 03:28:43;;;;;;;26.83;24.33;;;;;;;;;;5004413;28;20557;-45
2021/05/12 03:31:08;;;;;;;29.30;26.40;;;;;;;;;;5003874;28;20647;-45
2021/05/12 03:33:34;;;;;;;26.92;24.27;;;;;;;;;;5008810;28;21248;-45
2021/05/12 03:35:59;;;;;;;25.95;23.42;;;;;;;;;;5000905;28;20174;-45
2021/05/12 03:38:24;;;;;;;25.77;23.25;;;;;;;;;;5006742;28;20177;-44
2021/05/12 03:40:49;;;;;;;24.00;21.90;;;;;;;;;;5007107;28;20173;-45
2021/05/12 03:43:15;;;;;;;26.45;23.90;;;;;;;;;;5010406;28;20210;-45
2021/05/12 03:45:40;;;;;;;24.73;22.40;;;;;;;;;;5005361;28;20733;-45
2021/05/12 03:48:06;;;;;;;24.90;22.30;;;;;;;;;;5006147;28;20613;-45
2021/05/12 03:50:32;;;;;;;24.43;22.10;;;;;;;;;;5001129;28;20186;-45
2021/05/12 03:52:57;;;;;;;24.23;22.03;;;;;;;;;;5010614;28;20643;-45
2021/05/12 03:55:23;;;;;;;23.43;21.23;;;;;;;;;;5003298;28;20519;-45
2021/05/12 03:57:48;;;;;;;23.50;21.23;;;;;;;;;;5004034;28;20177;-45
2021/05/12 04:00:14;;;;;;;21.00;19.17;;;;;;;;;;5004491;28;20235;-45
2021/05/12 04:02:40;;;;;;;23.70;21.63;;;;;;;;;;5011089;28;20557;-45
2021/05/12 04:05:06;;;;;;;23.03;20.83;;;;;;;;;;5003591;28;20177;-45
2021/05/12 04:07:31;;;;;;;22.50;20.30;;;;;;;;;;5006496;28;20185;-44
2021/05/12 04:09:56;;;;;;;20.90;18.83;;;;;;;;;;5009943;28;20226;-45
2021/05/12 04:12:21;;;;;;;21.27;19.20;;;;;;;;;;5011325;28;20208;-45
2021/05/12 04:14:46;;;;;;;19.40;17.50;;;;;;;;;;4998285;28;20273;-46
2021/05/12 04:17:11;;;;;;;18.73;16.97;;;;;;;;;;5004320;28;20180;-45
2021/05/12 04:19:37;;;;;;;18.50;16.55;;;;;;;;;;5006749;28;20251;-45
2021/05/12 04:22:03;;;;;;;17.93;16.33;;;;;;;;;;5010613;28;20227;-45
2021/05/12 04:24:28;;;;;;;18.67;16.77;;;;;;;;;;5000675;28;20756;-45
2021/05/12 04:26:53;;;;;;;17.40;15.70;;;;;;;;;;5009687;28;20739;-45
2021/05/12 04:29:18;;;;;;;17.93;16.13;;;;;;;;;;5002507;28;20186;-44
2021/05/12 04:31:43;;;;;;;17.77;16.27;;;;;;;;;;5004189;28;20189;-46
2021/05/12 04:34:08;;;;;;;15.77;14.30;;;;;;;;;;5012620;28;20259;-45
2021/05/12 04:36:34;;;;;;;17.80;16.00;;;;;;;;;;5005014;28;20198;-45
2021/05/12 04:38:59;;;;;;;16.80;15.20;;;;;;;;;;5012162;28;20170;-45
2021/05/12 04:41:25;;;;;;;16.07;14.57;;;;;;;;;;5020143;28;20256;-44
2021/05/12 04:43:50;;;;;;;15.40;14.00;;;;;;;;;;5002670;28;20242;-45
2021/05/12 04:46:15;;;;;;;15.03;13.70;;;;;;;;;;4992970;28;20186;-46
2021/05/12 04:48:40;;;;;;;15.97;14.40;;;;;;;;;;4993303;28;20390;-45
2021/05/12 04:51:05;;;;;;;16.00;14.40;;;;;;;;;;5005500;28;20181;-45
2021/05/12 04:53:31;;;;;;;15.33;13.83;;;;;;;;;;4998395;28;20209;-44
2021/05/12 04:55:56;;;;;;;15.00;13.63;;;;;;;;;;5007807;28;20245;-45
2021/05/12 04:58:21;;;;;;;15.57;14.07;;;;;;;;;;5007417;28;20178;-45
2021/05/12 05:00:47;;;;;;;13.97;12.73;;;;;;;;;;4999741;28;20188;-45
2021/05/12 05:03:12;;;;;;;15.03;13.53;;;;;;;;;;4990498;28;20183;-46
2021/05/12 05:05:37;;;;;;;15.70;14.20;;;;;;;;;;5002116;28;20257;-45
2021/05/12 05:08:03;;;;;;;15.27;13.70;;;;;;;;;;5006427;28;20262;-44
2021/05/12 05:10:28;;;;;;;15.23;13.83;;;;;;;;;;4997550;28;20249;-45
2021/05/12 05:12:53;;;;;;;14.60;13.20;;;;;;;;;;5004040;28;20213;-46
2021/05/12 05:15:18;;;;;;;16.00;14.50;;;;;;;;;;5005235;28;20179;-45
2021/05/12 05:17:44;;;;;;;14.03;12.73;;;;;;;;;;5002543;28;20201;-46
2021/05/12 05:20:11;;;;;;;14.60;13.20;;;;;;;;;;4998359;28;20194;-45
2021/05/12 05:22:37;;;;;;;14.10;12.70;;;;;;;;;;5001254;28;20698;-44
2021/05/12 05:25:02;;;;;;;14.10;12.70;;;;;;;;;;4996338;28;20622;-47
2021/05/12 05:27:28;;;;;;;13.43;12.13;;;;;;;;;;5006357;28;20189;-46
2021/05/12 05:29:53;;;;;;;13.57;12.40;;;;;;;;;;5003078;28;20243;-46
2021/05/12 05:32:18;;;;;;;13.33;12.10;;;;;;;;;;5004545;28;20197;-47
2021/05/12 05:34:43;;;;;;;14.40;13.10;;;;;;;;;;4997448;28;20187;-45
2021/05/12 05:37:09;;;;;;;13.47;12.27;;;;;;;;;;4988600;28;20176;-44
2021/05/12 05:39:37;;;;;;;13.60;12.20;;;;;;;;;;4996175;28;20187;-45
2021/05/12 05:42:06;;;;;;;14.90;13.40;;;;;;;;;;5005415;28;20591;-45
2021/05/12 05:44:31;;;;;;;12.50;11.40;;;;;;;;;;5005419;28;20621;-45
2021/05/12 05:46:56;;;;;;;15.00;13.03;;;;;;;;;;4998775;28;20610;-45
2021/05/12 05:49:21;;;;;;;15.03;13.50;;;;;;;;;;4997807;28;20190;-45
2021/05/12 05:51:47;;;;;;;13.97;12.57;;;;;;;;;;5005461;28;20187;-45
2021/05/12 05:54:13;;;;;;;14.40;13.00;;;;;;;;;;5004579;28;20677;-45
2021/05/12 05:56:38;;;;;;;14.53;13.20;;;;;;;;;;5000339;28;20257;-45
2021/05/12 05:59:03;;;;;;;15.27;13.73;;;;;;;;;;5003271;28;20174;-45
2021/05/12 06:01:28;;;;;;;15.43;14.03;;;;;;;;;;5004282;28;20190;-47
2021/05/12 06:03:53;;;;;;;16.45;14.40;;;;;;;;;;5002144;28;20613;-46
2021/05/12 06:06:18;;;;;;;16.53;14.60;;;;;;;;;;5004572;28;20550;-43
2021/05/12 06:08:44;;;;;;;16.20;14.60;;;;;;;;;;5002308;28;20267;-44
2021/05/12 06:11:10;;;;;;;17.03;14.67;;;;;;;;;;5004080;28;20263;-44
2021/05/12 06:13:35;;;;;;;16.40;14.77;;;;;;;;;;5003852;28;20466;-44
2021/05/12 06:16:03;;;;;;;18.63;15.87;;;;;;;;;;5002629;28;20608;-44
2021/05/12 06:18:28;;;;;;;16.30;14.73;;;;;;;;;;4998352;28;20242;-44
2021/05/12 06:20:53;;;;;;;17.20;15.40;;;;;;;;;;5004468;28;20775;-44
2021/05/12 06:23:18;;;;;;;17.98;16.27;;;;;;;;;;5002516;28;20216;-44
2021/05/12 06:25:43;;;;;;;19.88;17.15;;;;;;;;;;4997326;28;20273;-45
2021/05/12 06:28:08;;;;;;;18.80;15.77;;;;;;;;;;4999997;28;20551;-45
2021/05/12 06:30:33;;;;;;;18.95;17.15;;;;;;;;;;5005338;28;20187;-46
2021/05/12 06:32:59;;;;;;;16.70;14.90;;;;;;;;;;5004762;28;20197;-45
2021/05/12 06:35:24;;;;;;;19.67;17.77;;;;;;;;;;5008381;28;20539;-45
2021/05/12 06:37:52;;;;;;;17.70;15.90;;;;;;;;;;5007824;28;20187;-45
2021/05/12 06:40:18;;;;;;;17.63;15.90;;;;;;;;;;5005765;28;20181;-45
2021/05/12 06:42:43;;;;;;;20.57;18.53;;;;;;;;;;5008031;28;20634;-46
2021/05/12 06:45:11;;;;;;;17.87;16.03;;;;;;;;;;5008087;28;20640;-45
2021/05/12 06:47:37;;;;;;;17.47;15.77;;;;;;;;;;4999415;28;20190;-45
2021/05/12 06:50:02;;;;;;;19.10;17.20;;;;;;;;;;4993530;28;20658;-45
2021/05/12 06:52:27;;;;;;;18.63;16.93;;;;;;;;;;5003272;28;20292;-46
2021/05/12 06:54:53;;;;;;;17.80;16.00;;;;;;;;;;5011006;28;20183;-45
2021/05/12 06:57:18;;;;;;;19.03;17.13;;;;;;;;;;5012329;28;20555;-44
2021/05/12 06:59:43;;;;;;;20.70;18.60;;;;;;;;;;5012253;28;20178;-45
2021/05/12 07:02:08;;;;;;;20.42;18.42;;;;;;;;;;5011195;28;20186;-45
2021/05/12 07:04:34;;;;;;;19.73;17.73;;;;;;;;;;5009595;28;20174;-45
2021/05/12 07:06:59;;;;;;;19.87;18.07;;;;;;;;;;5008984;28;20171;-45
2021/05/12 07:09:24;;;;;;;21.88;19.60;;;;;;;;;;5011425;28;20224;-45
2021/05/12 07:11:50;;;;;;;22.53;20.27;;;;;;;;;;5011492;28;20200;-46
2021/05/12 07:14:15;;;;;;;22.47;20.17;;;;;;;;;;5011500;28;20267;-46
2021/05/12 07:16:40;;;;;;;21.77;19.58;;;;;;;;;;5011684;28;20209;-46
2021/05/12 07:19:07;;;;;;;21.80;19.58;;;;;;;;;;5011929;28;20593;-46
2021/05/12 07:21:32;;;;;;;22.47;20.20;;;;;;;;;;5011845;28;20182;-45
2021/05/12 07:23:57;;;;;;;21.30;19.20;;;;;;;;;;5011524;28;20577;-46
2021/05/12 07:26:24;;;;;;;21.87;19.57;;;;;;;;;;5011424;28;20252;-46
2021/05/12 07:28:49;;;;;;;22.67;20.37;;;;;;;;;;5011845;28;20184;-47
2021/05/12 07:31:14;;;;;;;23.40;21.20;;;;;;;;;;5011428;28;20612;-47
2021/05/12 07:33:39;;;;;;;21.85;19.75;;;;;;;;;;5011277;28;20217;-47
2021/05/12 07:36:05;;;;;;;23.57;21.20;;;;;;;;;;5011455;28;20188;-46
2021/05/12 07:38:30;;;;;;;20.90;18.90;;;;;;;;;;5011429;28;20170;-46
2021/05/12 07:40:58;;;;;;;22.38;20.05;;;;;;;;;;5010912;28;20403;-46
2021/05/12 07:43:23;;;;;;;23.83;21.47;;;;;;;;;;5011249;28;20173;-46
2021/05/12 07:45:48;;;;;;;23.23;21.08;;;;;;;;;;5011242;28;21211;-47
2021/05/12 07:48:14;;;;;;;22.70;20.55;;;;;;;;;;5011439;28;20180;-46
2021/05/12 07:50:40;;;;;;;21.53;19.43;;;;;;;;;;5011001;28;20181;-45
2021/05/12 07:53:06;;;;;;;21.87;19.77;;;;;;;;;;5011009;28;20212;-46
2021/05/12 07:55:32;;;;;;;20.07;18.23;;;;;;;;;;5011054;28;20567;-45
2021/05/12 07:57:57;;;;;;;19.33;17.40;;;;;;;;;;5010711;28;20582;-46
2021/05/12 08:00:23;;;;;;;20.43;18.60;;;;;;;;;;5010966;28;20179;-47
2021/05/12 08:02:48;;;;;;;19.87;17.87;;;;;;;;;;5010963;28;20183;-46
2021/05/12 08:05:14;;;;;;;19.17;17.47;;;;;;;;;;5010960;28;20192;-46
2021/05/12 08:07:39;;;;;;;20.07;18.27;;;;;;;;;;5010609;28;20701;-48
2021/05/12 08:10:05;;;;;;;18.43;16.80;;;;;;;;;;5010239;28;20252;-47
2021/05/12 08:12:30;;;;;;;19.47;17.67;;;;;;;;;;5010696;28;20204;-45
2021/05/12 08:14:55;;;;;;;20.70;18.90;;;;;;;;;;5010461;28;20645;-47
2021/05/12 08:17:21;;;;;;;19.60;17.88;;;;;;;;;;5011111;28;20195;-46
2021/05/12 08:19:46;;;;;;;22.17;20.27;;;;;;;;;;5010308;28;20673;-46
2021/05/12 08:22:11;;;;;;;19.90;18.17;;;;;;;;;;5010585;28;20172;-47
2021/05/12 08:24:36;;;;;;;21.30;19.50;;;;;;;;;;5010428;28;20227;-45
2021/05/12 08:27:02;;;;;;;20.80;18.87;;;;;;;;;;5010341;28;20189;-46
2021/05/12 08:29:29;;;;;;;19.73;18.13;;;;;;;;;;5010398;28;20173;-47
2021/05/12 08:31:55;;;;;;;23.17;21.00;;;;;;;;;;5009975;28;21066;-45
2021/05/12 08:34:20;;;;;;;20.10;18.50;;;;;;;;;;5010787;28;20681;-46
2021/05/12 08:36:46;;;;;;;22.93;21.03;;;;;;;;;;5010177;28;20536;-47
2021/05/12 08:39:11;;;;;;;19.40;17.70;;;;;;;;;;5009781;28;20490;-46
2021/05/12 08:41:37;;;;;;;20.80;19.00;;;;;;;;;;5010095;28;20599;-46
2021/05/12 08:44:04;;;;;;;22.80;20.80;;;;;;;;;;5010353;28;20177;-45
2021/05/12 08:46:30;;;;;;;23.50;21.50;;;;;;;;;;5010015;28;20604;-46
2021/05/12 08:48:55;;;;;;;26.37;23.80;;;;;;;;;;5009660;28;21132;-46
2021/05/12 08:51:21;;;;;;;26.83;24.33;;;;;;;;;;5010432;28;20653;-45
2021/05/12 08:53:47;;;;;;;26.27;23.97;;;;;;;;;;5009646;28;20715;-46
2021/05/12 08:56:12;;;;;;;21.23;19.43;;;;;;;;;;5009876;28;20168;-46
2021/05/12 08:58:37;;;;;;;20.27;18.50;;;;;;;;;;5009804;28;20183;-47
2021/05/12 09:01:03;;;;;;;19.63;18.02;;;;;;;;;;5009658;28;20673;-46
2021/05/12 09:03:28;;;;;;;19.27;17.57;;;;;;;;;;5009784;28;20185;-45
2021/05/12 09:05:57;;;;;;;17.13;15.57;;;;;;;;;;5009464;28;20571;-45
2021/05/12 09:08:25;;;;;;;18.27;16.60;;;;;;;;;;5009473;28;20182;-44
2021/05/12 09:10:50;;;;;;;15.70;14.50;;;;;;;;;;5009370;28;20672;-44
2021/05/12 09:13:38;;;;;;;15.60;14.30;;;;;;;;;;5009587;28;20635;-46
2021/05/12 09:16:15;;;;;;;15.20;13.83;;;;;;;;;;5008912;28;20171;-46
2021/05/12 09:18:40;;;;;;;12.80;11.63;;;;;;;;;;5009305;28;20567;-45
2021/05/12 09:21:05;;;;;;;12.98;11.98;;;;;;;;;;5008866;28;20588;-45
2021/05/12 09:23:36;;;;;;;13.55;12.48;;;;;;;;;;5009345;28;20220;-45
2021/05/12 09:26:01;;;;;;;12.93;11.83;;;;;;;;;;5009122;28;20697;-45
2021/05/12 09:28:28;;;;;;;13.85;12.63;;;;;;;;;;5009543;28;21144;-46
2021/05/12 09:31:04;;;;;;;13.03;12.03;;;;;;;;;;5009295;28;20182;-44
2021/05/12 09:33:30;;;;;;;12.83;11.73;;;;;;;;;;5009100;28;20702;-44
2021/05/12 09:35:56;;;;;;;13.50;12.40;;;;;;;;;;5008801;28;21121;-45
2021/05/12 09:38:23;;;;;;;14.07;12.97;;;;;;;;;;5009667;28;20652;-47
2021/05/12 09:41:04;;;;;;;13.50;12.23;;;;;;;;;;5009289;28;20175;-46
2021/05/12 09:43:30;;;;;;;12.70;11.70;;;;;;;;;;5009125;28;20614;-46
2021/05/12 09:46:14;;;;;;;11.80;10.80;;;;;;;;;;5008502;28;20617;-46
2021/05/12 09:48:39;;;;;;;17.20;15.67;;;;;;;;;;5009087;28;20666;-46
2021/05/12 09:51:14;;;;;;;14.90;13.70;;;;;;;;;;5009139;28;20671;-45
2021/05/12 09:53:40;;;;;;;12.40;11.40;;;;;;;;;;5008742;28;20198;-45
2021/05/12 09:56:05;;;;;;;14.30;13.00;;;;;;;;;;5009001;28;20581;-46
2021/05/12 09:58:30;;;;;;;15.05;13.75;;;;;;;;;;5008790;28;20172;-45
2021/05/12 10:00:56;;;;;;;13.93;12.80;;;;;;;;;;5008347;28;20205;-45
2021/05/12 10:03:23;;;;;;;16.47;14.70;;;;;;;;;;5009130;28;20684;-45
2021/05/12 10:05:49;;;;;;;14.53;13.07;;;;;;;;;;5008685;28;20910;-45
2021/05/12 10:08:19;;;;;;;14.50;13.10;;;;;;;;;;5008630;28;20612;-45
2021/05/12 10:10:44;;;;;;;13.70;12.50;;;;;;;;;;5008422;28;20757;-45
2021/05/12 10:13:09;;;;;;;15.07;13.83;;;;;;;;;;5008275;28;20737;-44
2021/05/12 10:15:34;;;;;;;16.13;14.70;;;;;;;;;;5008366;28;20573;-44
2021/05/12 10:18:00;;;;;;;15.20;13.90;;;;;;;;;;5008380;28;20204;-46
2021/05/12 10:20:26;;;;;;;15.40;14.00;;;;;;;;;;5008944;28;20184;-45
2021/05/12 10:22:52;;;;;;;15.07;13.87;;;;;;;;;;5008597;28;20170;-45
2021/05/12 10:25:17;;;;;;;15.93;14.63;;;;;;;;;;5008428;28;20220;-44
2021/05/12 10:27:42;;;;;;;15.60;14.33;;;;;;;;;;5007470;28;20581;-45
2021/05/12 10:30:08;;;;;;;17.03;15.63;;;;;;;;;;5008287;28;20255;-45
2021/05/12 10:32:37;;;;;;;15.67;14.27;;;;;;;;;;5008479;28;20206;-47
2021/05/12 10:35:10;;;;;;;16.83;15.23;;;;;;;;;;5008139;28;20262;-46
2021/05/12 10:37:36;;;;;;;16.03;14.63;;;;;;;;;;5008543;28;21104;-47
2021/05/12 10:40:03;;;;;;;17.67;16.07;;;;;;;;;;5008454;28;20613;-46
2021/05/12 10:42:45;;;;;;;18.00;16.37;;;;;;;;;;5008210;28;20690;-44
2021/05/12 10:45:13;;;;;;;16.97;15.47;;;;;;;;;;5007941;28;20577;-45
2021/05/12 10:47:38;;;;;;;19.10;17.47;;;;;;;;;;5008662;28;20574;-45
2021/05/12 10:50:03;;;;;;;17.17;15.68;;;;;;;;;;5008131;28;20547;-46
2021/05/12 10:52:29;;;;;;;17.87;16.27;;;;;;;;;;5008007;28;20369;-45
2021/05/12 10:54:55;;;;;;;17.90;16.20;;;;;;;;;;5007947;28;20189;-46
2021/05/12 10:57:35;;;;;;;17.80;16.30;;;;;;;;;;5008364;28;20178;-44
2021/05/12 11:00:00;;;;;;;16.90;15.50;;;;;;;;;;5007816;28;20696;-44
2021/05/12 11:02:44;;;;;;;18.30;16.50;;;;;;;;;;5008154;28;21114;-44
2021/05/12 11:05:09;;;;;;;17.63;16.13;;;;;;;;;;5007778;28;20179;-45
2021/05/12 11:07:34;;;;;;;19.37;17.67;;;;;;;;;;5008383;28;21181;-46
2021/05/12 11:10:00;;;;;;;20.10;18.27;;;;;;;;;;5007670;28;20594;-45
2021/05/12 11:12:32;;;;;;;18.93;17.20;;;;;;;;;;5007734;28;20355;-46
2021/05/12 11:14:58;;;;;;;18.80;17.20;;;;;;;;;;5007653;28;20237;-46
2021/05/12 11:17:40;;;;;;;19.30;17.60;;;;;;;;;;5008193;28;20676;-45
2021/05/12 11:20:11;;;;;;;18.87;17.27;;;;;;;;;;5008184;28;20220;-46
2021/05/12 11:22:42;;;;;;;18.07;16.43;;;;;;;;;;5007941;28;20591;-45
2021/05/12 11:33:18;;;;;;;20.60;18.50;;;;;;;;;;5007903;28;21251;-46
2021/05/12 11:35:47;;;;;;;20.90;19.00;;;;;;;;;;5007833;28;20581;-44
2021/05/12 11:38:16;;;;;;;21.43;19.53;;;;;;;;;;5008889;28;20583;-45
2021/05/12 11:40:57;;;;;;;21.80;19.77;;;;;;;;;;5011317;28;21047;-44
2021/05/12 11:43:30;;;;;;;22.63;20.57;;;;;;;;;;5011785;28;20618;-45
2021/05/12 11:46:04;;;;;;;22.90;20.70;;;;;;;;;;5011124;28;20683;-45
2021/05/12 11:48:30;;;;;;;22.57;20.50;;;;;;;;;;5011628;28;20918;-45
2021/05/12 11:50:55;;;;;;;23.67;21.57;;;;;;;;;;5010994;28;20622;-45
2021/05/12 11:53:20;;;;;;;24.70;22.30;;;;;;;;;;5010952;28;20635;-46
2021/05/12 11:55:46;;;;;;;23.83;21.48;;;;;;;;;;5011131;28;20580;-46
2021/05/12 11:58:21;;;;;;;24.73;22.43;;;;;;;;;;5011050;28;20188;-45
2021/05/12 12:00:46;;;;;;;27.13;24.30;;;;;;;;;;5010984;28;20500;-46
2021/05/12 12:03:12;;;;;;;26.87;23.80;;;;;;;;;;5010543;28;20586;-46
2021/05/12 12:05:46;;;;;;;26.20;23.70;;;;;;;;;;5010820;28;20600;-44
2021/05/12 12:08:12;;;;;;;28.47;25.47;;;;;;;;;;5010782;28;20891;-45
2021/05/12 12:10:38;;;;;;;28.63;25.60;;;;;;;;;;5010871;28;21286;-44
2021/05/12 12:13:03;;;;;;;30.10;27.10;;;;;;;;;;5010753;28;20785;-45
2021/05/12 12:15:28;;;;;;;30.40;27.33;;;;;;;;;;5010675;28;20175;-44
2021/05/12 12:17:54;;;;;;;29.98;27.00;;;;;;;;;;5010716;28;20196;-44
2021/05/12 12:20:19;;;;;;;31.57;27.03;;;;;;;;;;5010713;28;20631;-44
2021/05/12 12:22:48;;;;;;;35.77;29.80;;;;;;;;;;5010610;28;20523;-44
2021/05/12 12:25:17;;;;;;;40.00;33.17;;;;;;;;;;5010568;28;20175;-44
2021/05/12 12:27:42;;;;;;;35.70;30.47;;;;;;;;;;5010518;28;20579;-45
2021/05/12 12:30:08;;;;;;;41.60;35.20;;;;;;;;;;5010727;28;21195;-45
2021/05/12 12:32:34;;;;;;;38.90;33.93;;;;;;;;;;5009884;28;20264;-44
2021/05/12 12:35:00;;;;;;;39.23;32.70;;;;;;;;;;5010124;28;20814;-45
2021/05/12 12:37:30;;;;;;;38.30;33.90;;;;;;;;;;5010474;28;20574;-44
2021/05/12 12:40:01;;;;;;;38.07;33.13;;;;;;;;;;5010386;28;20259;-45
2021/05/12 12:42:30;;;;;;;38.20;32.30;;;;;;;;;;5010227;28;20620;-45
2021/05/12 12:45:01;;;;;;;36.57;32.53;;;;;;;;;;5009945;28;20615;-46
2021/05/12 12:47:27;;;;;;;37.30;31.30;;;;;;;;;;5010099;28;20578;-45
2021/05/12 12:50:05;;;;;;;37.37;32.07;;;;;;;;;;5009469;28;21183;-45
2021/05/12 12:52:30;;;;;;;34.87;30.70;;;;;;;;;;5009663;28;20281;-45
2021/05/12 12:55:04;;;;;;;31.87;28.50;;;;;;;;;;5009851;28;20702;-44
2021/05/12 12:57:37;;;;;;;31.57;28.20;;;;;;;;;;5009638;28;20211;-45
2021/05/12 13:00:11;;;;;;;30.40;27.37;;;;;;;;;;5009767;28;20579;-46
2021/05/12 13:02:37;;;;;;;30.17;27.13;;;;;;;;;;5009720;28;20646;-44
2021/05/12 13:05:09;;;;;;;30.90;27.77;;;;;;;;;;5009034;28;20585;-47
2021/05/12 13:07:34;;;;;;;28.23;25.37;;;;;;;;;;5009358;28;20582;-45
2021/05/12 13:10:19;;;;;;;28.88;25.77;;;;;;;;;;5008645;28;20763;-46
2021/05/12 13:12:45;;;;;;;27.30;24.50;;;;;;;;;;5008544;28;20200;-45
2021/05/12 13:15:18;;;;;;;26.20;22.23;;;;;;;;;;5008812;28;20979;-46
2021/05/12 13:17:56;;;;;;;23.77;21.40;;;;;;;;;;5008929;28;20686;-45
2021/05/12 13:20:22;;;;;;;22.07;19.83;;;;;;;;;;5008729;28;20567;-45
2021/05/12 13:23:08;;;;;;;22.43;20.07;;;;;;;;;;5008789;28;20583;-45
2021/05/12 13:25:35;;;;;;;23.17;20.77;;;;;;;;;;5008559;28;20179;-45
2021/05/12 13:28:01;;;;;;;22.63;20.53;;;;;;;;;;5008801;28;20581;-44
2021/05/12 13:30:26;;;;;;;22.67;20.43;;;;;;;;;;5008407;28;20581;-44
2021/05/12 13:32:51;;;;;;;20.38;18.27;;;;;;;;;;5008687;28;20662;-45
2021/05/12 13:35:17;;;;;;;19.60;17.73;;;;;;;;;;5008177;28;20174;-45
2021/05/12 13:37:45;;;;;;;19.67;17.43;;;;;;;;;;5008718;28;20306;-45
2021/05/12 13:40:10;;;;;;;19.70;17.90;;;;;;;;;;5008252;28;20543;-44
2021/05/12 13:42:35;;;;;;;18.50;16.70;;;;;;;;;;5008882;28;20591;-45
2021/05/12 13:45:01;;;;;;;17.45;15.85;;;;;;;;;;5008431;28;20392;-45
2021/05/12 13:47:26;;;;;;;19.17;17.37;;;;;;;;;;5008374;28;20202;-45
2021/05/12 13:49:51;;;;;;;17.63;16.03;;;;;;;;;;5008567;28;20188;-44
2021/05/12 13:52:23;;;;;;;21.13;19.13;;;;;;;;;;5007670;28;20182;-44
2021/05/12 13:54:54;;;;;;;21.30;18.87;;;;;;;;;;5008040;28;20176;-44
2021/05/12 13:57:30;;;;;;;21.10;19.17;;;;;;;;;;5008147;28;21031;-45
2021/05/12 14:04:56;;;;;;;19.33;17.63;;;;;;;;;;5008456;28;20697;-45
2021/05/12 14:07:21;;;;;;;22.27;20.00;;;;;;;;;;5008248;28;20615;-45
2021/05/12 14:09:49;;;;;;;21.13;18.97;;;;;;;;;;5007946;28;21496;-45
2021/05/12 14:12:18;;;;;;;22.03;19.83;;;;;;;;;;5006125;28;20195;-45
2021/05/12 14:15:00;;;;;;;18.20;16.40;;;;;;;;;;5007407;28;20626;-45
2021/05/12 14:17:28;;;;;;;19.83;17.77;;;;;;;;;;5008219;28;20717;-46
2021/05/12 14:19:54;;;;;;;18.80;17.17;;;;;;;;;;5008356;28;20585;-45
2021/05/12 14:22:19;;;;;;;17.97;16.23;;;;;;;;;;5007730;28;20563;-45
2021/05/12 14:24:44;;;;;;;17.43;15.70;;;;;;;;;;5007627;28;20176;-45
2021/05/12 14:27:09;;;;;;;17.93;16.23;;;;;;;;;;5007795;28;20181;-44